createdAt,value
2019-03-03T00:01:23.325Z,77.95
2019-03-03T00:03:53.777Z,78.24
2019-03-03T00:06:23.430Z,78.21
2019-03-03T00:08:52.713Z,78.05
2019-03-03T00:11:22.028Z,77.26
2019-03-03T00:13:51.783Z,77.26
2019-03-03T00:16:21.124Z,77.72
2019-03-03T00:18:50.461Z,77.62
2019-03-03T00:21:20.242Z,76.87
2019-03-03T00:23:49.543Z,76.76
2019-03-03T00:26:18.825Z,76.72
2019-03-03T00:28:48.507Z,76.91
2019-03-03T00:31:20.105Z,77.38
2019-03-03T00:33:49.354Z,77.26
2019-03-03T00:36:19.555Z,76.54
2019-03-03T00:39:06.132Z,76.91
2019-03-03T00:41:57.760Z,76.51
2019-03-03T00:44:51.833Z,76.49
2019-03-03T00:47:43.314Z,76.06
2019-03-03T00:50:19.596Z,76.36
2019-03-03T00:52:54.905Z,76.37
2019-03-03T00:55:31.352Z,76.68
2019-03-03T00:58:25.713Z,77.37
2019-03-03T01:01:03.664Z,77.55
2019-03-03T01:03:42.478Z,77.25
2019-03-03T01:06:29.606Z,77.43
2019-03-03T01:09:12.490Z,77.36
2019-03-03T01:11:53.535Z,77.41
2019-03-03T01:15:00.351Z,77.35
2019-03-03T01:17:35.686Z,77.25
2019-03-03T01:20:12.861Z,76.95
2019-03-03T01:23:04.087Z,76.81
2019-03-03T01:25:39.942Z,76.85
2019-03-03T01:28:09.261Z,77.07
2019-03-03T01:30:38.552Z,77.09
2019-03-03T01:33:07.799Z,77.07
2019-03-03T01:35:37.242Z,76.82
2019-03-03T01:38:06.955Z,76.52
2019-03-03T01:40:36.200Z,76.39
2019-03-03T01:43:05.560Z,76.56
2019-03-03T01:45:35.168Z,76.47
2019-03-03T01:48:06.505Z,76.21
2019-03-03T01:50:35.769Z,75.55
2019-03-03T01:53:05.297Z,75.78
2019-03-03T01:55:34.537Z,75.53
2019-03-03T01:58:06.897Z,75.34
2019-03-03T02:00:36.479Z,75.44
2019-03-03T02:03:06.977Z,75.58
2019-03-03T02:05:36.713Z,75.59
2019-03-03T02:08:06.340Z,75.52
2019-03-03T02:10:35.602Z,75.25
2019-03-03T02:13:05.039Z,75.41
2019-03-03T02:15:34.790Z,75.42
2019-03-03T02:18:06.875Z,75.22
2019-03-03T02:20:36.182Z,75.48
2019-03-03T02:23:05.765Z,75.60
2019-03-03T02:25:35.004Z,75.77
2019-03-03T02:28:05.845Z,76.00
2019-03-03T02:30:35.468Z,76.30
2019-03-03T02:33:04.816Z,75.83
2019-03-03T02:35:34.130Z,76.05
2019-03-03T02:38:06.824Z,76.02
2019-03-03T02:40:36.084Z,75.38
2019-03-03T02:43:05.371Z,75.36
2019-03-03T02:45:34.985Z,75.42
2019-03-03T02:48:04.800Z,75.53
2019-03-03T02:50:34.119Z,75.29
2019-03-03T02:53:03.824Z,75.31
2019-03-03T02:55:33.092Z,74.99
2019-03-03T02:58:03.108Z,75.12
2019-03-03T03:00:33.797Z,75.16
2019-03-03T03:03:03.906Z,74.83
2019-03-03T03:05:50.475Z,74.92
2019-03-03T03:08:24.119Z,75.44
2019-03-03T03:11:10.891Z,75.88
2019-03-03T03:13:49.897Z,76.16
2019-03-03T03:16:25.338Z,75.69
2019-03-03T03:19:03.128Z,75.89
2019-03-03T03:21:39.791Z,76.20
2019-03-03T03:24:45.462Z,75.87
2019-03-03T03:27:35.762Z,75.75
2019-03-03T03:30:34.824Z,76.06
2019-03-03T03:33:21.557Z,75.75
2019-03-03T03:36:25.259Z,75.88
2019-03-03T03:39:09.544Z,75.92
2019-03-03T03:41:45.066Z,75.93
2019-03-03T03:44:43.462Z,75.87
2019-03-03T03:47:24.238Z,75.88
2019-03-03T03:50:12.486Z,75.53
2019-03-03T03:53:01.868Z,75.55
2019-03-03T03:55:56.222Z,75.74
2019-03-03T03:58:46.917Z,75.62
2019-03-03T04:01:23.865Z,75.85
2019-03-03T04:04:19.079Z,75.75
2019-03-03T04:07:07.267Z,76.19
2019-03-03T04:10:10.394Z,75.91
2019-03-03T04:12:58.697Z,76.15
2019-03-03T04:15:46.150Z,76.29
2019-03-03T04:18:22.458Z,75.87
2019-03-03T04:21:26.004Z,75.88
2019-03-03T04:24:09.440Z,75.83
2019-03-03T04:26:59.176Z,75.59
2019-03-03T04:29:35.898Z,76.01
2019-03-03T04:32:21.201Z,75.89
2019-03-03T04:35:15.474Z,75.49
2019-03-03T04:38:04.387Z,75.32
2019-03-03T04:40:54.003Z,75.49
2019-03-03T04:43:40.712Z,75.41
2019-03-03T04:46:29.147Z,75.16
2019-03-03T04:49:18.921Z,75.05
2019-03-03T04:52:04.503Z,74.67
2019-03-03T04:54:53.134Z,74.42
2019-03-03T04:57:44.428Z,74.41
2019-03-03T05:00:33.838Z,74.42
2019-03-03T05:03:26.829Z,74.47
2019-03-03T05:06:08.415Z,74.25
2019-03-03T05:09:02.584Z,73.73
2019-03-03T05:12:29.908Z,73.68
2019-03-03T05:15:05.093Z,73.43
2019-03-03T05:17:41.743Z,72.97
2019-03-03T05:20:11.309Z,73.28
2019-03-03T05:22:40.827Z,73.17
2019-03-03T05:25:10.467Z,73.09
2019-03-03T05:27:39.739Z,72.88
2019-03-03T05:30:09.042Z,72.51
2019-03-03T05:32:38.677Z,71.95
2019-03-03T05:35:09.526Z,72.46
2019-03-03T05:37:38.806Z,72.70
2019-03-03T05:40:08.456Z,72.67
2019-03-03T05:42:37.770Z,72.33
2019-03-03T05:45:07.140Z,71.72
2019-03-03T05:47:36.756Z,71.67
2019-03-03T05:50:09.071Z,71.20
2019-03-03T05:52:38.327Z,71.33
2019-03-03T05:55:07.993Z,70.89
2019-03-03T05:57:37.312Z,71.29
2019-03-03T06:00:07.013Z,70.75
2019-03-03T06:02:37.685Z,70.69
2019-03-03T06:05:07.192Z,70.90
2019-03-03T06:07:36.609Z,70.84
2019-03-03T06:10:11.545Z,70.83
2019-03-03T06:12:41.044Z,70.41
2019-03-03T06:15:13.039Z,70.52
2019-03-03T06:17:42.771Z,70.49
2019-03-03T06:20:12.614Z,70.32
2019-03-03T06:22:41.831Z,70.15
2019-03-03T06:25:12.668Z,69.94
2019-03-03T06:27:41.922Z,69.54
2019-03-03T06:30:12.681Z,69.52
2019-03-03T06:32:42.323Z,69.45
2019-03-03T06:35:11.763Z,69.38
2019-03-03T06:37:41.000Z,69.47
2019-03-03T06:40:11.039Z,69.21
2019-03-03T06:42:40.277Z,69.11
2019-03-03T06:45:10.926Z,69.61
2019-03-03T06:47:40.504Z,69.72
2019-03-03T06:50:11.254Z,69.83
2019-03-03T06:52:40.560Z,69.88
2019-03-03T06:55:10.532Z,69.66
2019-03-03T06:57:39.925Z,69.95
2019-03-03T07:00:12.697Z,69.74
2019-03-03T07:02:42.267Z,70.25
2019-03-03T07:05:11.692Z,69.89
2019-03-03T07:07:41.199Z,69.37
2019-03-03T07:10:14.375Z,69.45
2019-03-03T07:12:43.668Z,69.10
2019-03-03T07:15:14.608Z,69.22
2019-03-03T07:17:44.254Z,68.78
2019-03-03T07:20:14.084Z,68.59
2019-03-03T07:22:43.408Z,68.14
2019-03-03T07:25:13.242Z,68.06
2019-03-03T07:27:42.592Z,68.62
2019-03-03T07:30:13.463Z,68.26
2019-03-03T07:33:01.920Z,68.12
2019-03-03T07:35:31.179Z,68.34
2019-03-03T07:38:00.723Z,68.47
2019-03-03T07:40:30.021Z,68.29
2019-03-03T07:42:59.308Z,67.83
2019-03-03T07:45:28.825Z,67.80
2019-03-03T07:47:58.529Z,67.89
2019-03-03T07:50:27.866Z,67.87
2019-03-03T07:52:57.387Z,67.88
2019-03-03T07:55:26.752Z,67.97
2019-03-03T07:57:56.529Z,67.92
2019-03-03T08:00:26.070Z,67.57
2019-03-03T08:02:55.360Z,67.74
2019-03-03T08:05:24.619Z,67.44
2019-03-03T08:07:54.191Z,67.20
2019-03-03T08:10:23.486Z,67.17
2019-03-03T08:12:52.739Z,66.95
2019-03-03T08:15:22.292Z,66.63
2019-03-03T08:17:51.578Z,66.69
2019-03-03T08:20:20.847Z,66.39
2019-03-03T08:22:50.407Z,66.25
2019-03-03T08:25:19.709Z,65.79
2019-03-03T08:27:48.968Z,65.88
2019-03-03T08:30:18.515Z,66.05
2019-03-03T08:32:47.862Z,65.54
2019-03-03T08:35:17.104Z,65.85
2019-03-03T08:37:46.734Z,65.69
2019-03-03T08:40:16.070Z,65.85
2019-03-03T08:43:00.864Z,65.65
2019-03-03T08:45:55.376Z,65.66
2019-03-03T08:48:35.590Z,66.04
2019-03-03T08:51:11.591Z,65.82
2019-03-03T08:54:05.791Z,65.83
2019-03-03T08:57:08.943Z,66.17
2019-03-03T09:00:03.414Z,65.57
2019-03-03T09:02:50.001Z,65.94
2019-03-03T09:05:26.623Z,65.93
2019-03-03T09:08:12.972Z,66.01
2019-03-03T09:11:04.419Z,65.90
2019-03-03T09:13:49.242Z,66.00
2019-03-03T09:16:32.479Z,66.03
2019-03-03T09:19:19.081Z,66.07
2019-03-03T09:21:58.108Z,65.78
2019-03-03T09:24:46.361Z,65.74
2019-03-03T09:27:36.133Z,65.66
2019-03-03T09:30:30.916Z,65.31
2019-03-03T09:33:19.380Z,64.88
2019-03-03T09:36:13.663Z,64.84
2019-03-03T09:39:05.639Z,65.09
2019-03-03T09:42:08.670Z,65.48
2019-03-03T09:44:49.378Z,65.06
2019-03-03T09:47:30.471Z,65.45
2019-03-03T09:50:25.946Z,65.38
2019-03-03T09:53:32.102Z,65.69
2019-03-03T09:56:13.994Z,65.88
2019-03-03T09:59:00.529Z,65.33
2019-03-03T10:01:44.128Z,65.29
2019-03-03T10:04:23.016Z,65.52
2019-03-03T10:07:17.476Z,65.43
2019-03-03T10:09:57.794Z,65.43
2019-03-03T10:12:46.391Z,65.29
2019-03-03T10:15:50.082Z,65.20
2019-03-03T10:18:38.649Z,65.42
2019-03-03T10:21:32.955Z,65.78
2019-03-03T10:24:13.874Z,65.74
2019-03-03T10:27:11.410Z,65.35
2019-03-03T10:29:54.749Z,65.68
2019-03-03T10:32:38.370Z,65.61
2019-03-03T10:35:30.369Z,65.62
2019-03-03T10:38:19.472Z,65.59
2019-03-03T10:41:08.232Z,65.49
2019-03-03T10:43:47.659Z,65.54
2019-03-03T10:46:54.363Z,65.79
2019-03-03T10:49:34.105Z,65.53
2019-03-03T10:52:10.849Z,65.74
2019-03-03T10:54:49.430Z,65.76
2019-03-03T10:57:56.479Z,65.84
2019-03-03T11:00:47.718Z,66.04
2019-03-03T11:03:39.036Z,65.84
2019-03-03T11:06:45.839Z,65.72
2019-03-03T11:09:31.719Z,65.30
2019-03-03T11:12:30.637Z,64.56
2019-03-03T11:15:22.112Z,64.38
2019-03-03T11:18:26.600Z,64.22
2019-03-03T11:21:24.119Z,64.21
2019-03-03T11:24:00.030Z,64.20
2019-03-03T11:27:00.745Z,64.46
2019-03-03T11:29:55.334Z,64.76
2019-03-03T11:32:42.658Z,64.83
2019-03-03T11:35:29.942Z,64.44
2019-03-03T11:38:37.568Z,64.66
2019-03-03T11:41:24.775Z,64.68
2019-03-03T11:44:04.481Z,65.20
2019-03-03T11:46:53.091Z,64.83
2019-03-03T11:49:44.928Z,65.21
2019-03-03T11:52:29.354Z,65.33
2019-03-03T11:55:24.269Z,65.38
2019-03-03T11:58:21.729Z,65.16
2019-03-03T12:01:13.806Z,65.42
2019-03-03T12:04:08.463Z,65.45
2019-03-03T12:07:06.263Z,65.11
2019-03-03T12:09:58.066Z,64.78
2019-03-03T12:12:53.474Z,64.57
2019-03-03T12:15:34.944Z,64.74
2019-03-03T12:18:24.777Z,64.61
2019-03-03T12:21:12.220Z,64.91
2019-03-03T12:23:59.366Z,64.92
2019-03-03T12:27:04.329Z,65.02
2019-03-03T12:29:56.495Z,65.08
2019-03-03T12:32:35.268Z,64.57
2019-03-03T12:35:39.448Z,64.90
2019-03-03T12:38:26.750Z,64.85
2019-03-03T12:41:15.113Z,64.69
2019-03-03T12:44:00.910Z,64.60
2019-03-03T12:46:45.906Z,64.93
2019-03-03T12:49:26.979Z,64.92
2019-03-03T12:52:17.839Z,64.45
2019-03-03T12:55:18.473Z,64.41
2019-03-03T12:58:13.570Z,64.23
2019-03-03T13:01:04.549Z,64.15
2019-03-03T13:03:46.209Z,64.19
2019-03-03T13:06:40.695Z,64.06
2019-03-03T13:09:20.514Z,64.31
2019-03-03T13:12:15.418Z,64.13
2019-03-03T13:15:05.265Z,63.92
2019-03-03T13:17:53.875Z,63.72
2019-03-03T13:20:33.248Z,63.72
2019-03-03T13:23:20.408Z,63.83
2019-03-03T13:26:15.061Z,63.68
2019-03-03T13:29:06.563Z,63.20
2019-03-03T13:32:01.241Z,63.05
2019-03-03T13:34:48.519Z,63.21
2019-03-03T13:37:35.759Z,63.25
2019-03-03T13:40:40.261Z,62.99
2019-03-03T13:43:10.355Z,62.95
2019-03-03T13:45:40.147Z,63.29
2019-03-03T13:48:13.031Z,63.47
2019-03-03T13:50:44.781Z,63.05
2019-03-03T13:53:14.531Z,63.35
2019-03-03T13:55:44.296Z,63.20
2019-03-03T13:58:14.487Z,63.25
2019-03-03T14:00:44.464Z,63.47
2019-03-03T14:03:14.179Z,63.39
2019-03-03T14:05:44.417Z,63.24
2019-03-03T14:08:14.156Z,62.70
2019-03-03T14:10:44.994Z,62.43
2019-03-03T14:13:15.120Z,62.15
2019-03-03T14:15:45.129Z,61.21
2019-03-03T14:18:14.792Z,60.93
2019-03-03T14:20:51.487Z,61.45
2019-03-03T14:23:21.250Z,61.62
2019-03-03T14:25:52.270Z,61.82
2019-03-03T14:28:22.033Z,61.62
2019-03-03T14:30:51.885Z,61.61
2019-03-03T14:33:21.967Z,61.26
2019-03-03T14:35:52.126Z,60.94
2019-03-03T14:38:21.810Z,60.79
2019-03-03T14:40:55.038Z,61.22
2019-03-03T14:43:24.807Z,61.49
2019-03-03T14:45:54.500Z,61.53
2019-03-03T14:48:24.709Z,61.86
2019-03-03T14:50:56.870Z,62.19
2019-03-03T14:53:26.155Z,62.01
2019-03-03T14:55:56.442Z,61.88
2019-03-03T14:58:26.352Z,62.10
2019-03-03T15:00:56.486Z,62.37
2019-03-03T15:03:26.380Z,62.66
2019-03-03T15:05:56.411Z,62.73
2019-03-03T15:08:26.491Z,62.73
2019-03-03T15:10:56.340Z,62.26
2019-03-03T15:13:26.286Z,62.38
2019-03-03T15:16:05.335Z,62.34
2019-03-03T15:18:35.160Z,62.43
2019-03-03T15:21:05.499Z,62.12
2019-03-03T15:23:35.224Z,62.05
2019-03-03T15:26:07.918Z,61.82
2019-03-03T15:28:37.843Z,62.10
2019-03-03T15:31:07.854Z,61.86
2019-03-03T15:33:38.655Z,61.91
2019-03-03T15:36:11.358Z,61.70
2019-03-03T15:38:42.009Z,61.70
2019-03-03T15:41:11.760Z,61.74
2019-03-03T15:43:41.493Z,61.84
2019-03-03T15:46:11.817Z,61.83
2019-03-03T15:48:41.502Z,61.66
2019-03-03T15:51:11.281Z,61.52
2019-03-03T15:53:41.542Z,61.30
2019-03-03T15:56:11.952Z,61.26
2019-03-03T15:58:41.772Z,61.08
2019-03-03T16:01:15.907Z,60.88
2019-03-03T16:03:45.917Z,60.80
2019-03-03T16:06:15.759Z,60.70
2019-03-03T16:08:47.221Z,60.56
2019-03-03T16:11:17.042Z,60.90
2019-03-03T16:13:46.909Z,60.52
2019-03-03T16:16:17.116Z,60.63
2019-03-03T16:18:48.317Z,60.37
2019-03-03T16:21:18.164Z,60.68
2019-03-03T16:23:48.357Z,60.99
2019-03-03T16:26:18.040Z,61.11
2019-03-03T16:28:47.805Z,60.79
2019-03-03T16:31:17.686Z,60.79
2019-03-03T16:33:50.073Z,60.63
2019-03-03T16:36:20.415Z,60.82
2019-03-03T16:38:50.249Z,60.76
2019-03-03T16:41:20.057Z,61.04
2019-03-03T16:43:49.884Z,60.84
2019-03-03T16:46:19.704Z,60.51
2019-03-03T16:48:49.837Z,60.56
2019-03-03T16:51:22.102Z,60.73
2019-03-03T16:53:53.940Z,60.53
2019-03-03T16:56:23.924Z,60.31
2019-03-03T16:58:53.738Z,60.26
2019-03-03T17:01:23.564Z,60.31
2019-03-03T17:03:53.861Z,60.28
2019-03-03T17:06:26.146Z,60.43
2019-03-03T17:08:59.177Z,60.62
2019-03-03T17:11:29.112Z,60.58
2019-03-03T17:13:59.738Z,60.55
2019-03-03T17:16:29.822Z,60.49
2019-03-03T17:18:59.591Z,60.16
2019-03-03T17:21:29.523Z,60.19
2019-03-03T17:24:00.328Z,60.13
2019-03-03T17:26:30.203Z,60.17
2019-03-03T17:29:00.125Z,60.01
2019-03-03T17:31:30.433Z,59.75
2019-03-03T17:34:00.570Z,59.81
2019-03-03T17:36:30.439Z,59.82
2019-03-03T17:39:00.536Z,59.78
2019-03-03T17:41:30.250Z,59.86
2019-03-03T17:44:00.666Z,60.00
2019-03-03T17:46:38.777Z,59.84
2019-03-03T17:49:08.683Z,60.24
2019-03-03T17:51:38.634Z,60.05
2019-03-03T17:54:08.896Z,60.06
2019-03-03T17:56:39.046Z,59.97
2019-03-03T17:59:08.889Z,60.31
2019-03-03T18:01:38.832Z,60.17
2019-03-03T18:04:08.642Z,60.51
2019-03-03T18:06:39.058Z,60.82
2019-03-03T18:09:11.398Z,60.51
2019-03-03T18:11:41.321Z,60.68
2019-03-03T18:14:11.171Z,60.53
2019-03-03T18:16:41.581Z,60.64
2019-03-03T18:19:11.645Z,60.71
2019-03-03T18:21:42.281Z,60.72
2019-03-03T18:24:12.546Z,60.72
2019-03-03T18:26:43.277Z,60.52
2019-03-03T18:29:13.017Z,60.61
2019-03-03T18:31:43.170Z,60.82
2019-03-03T18:34:12.958Z,60.89
2019-03-03T18:36:42.740Z,60.96
2019-03-03T18:39:13.290Z,61.01
2019-03-03T18:41:44.445Z,60.75
2019-03-03T18:44:14.451Z,60.93
2019-03-03T18:46:45.713Z,61.06
2019-03-03T18:49:15.690Z,61.19
2019-03-03T18:51:46.805Z,61.17
2019-03-03T18:54:17.050Z,61.02
2019-03-03T18:56:47.601Z,60.79
2019-03-03T18:59:17.323Z,60.96
2019-03-03T19:01:47.631Z,60.92
2019-03-03T19:04:17.460Z,60.64
2019-03-03T19:06:48.904Z,60.69
2019-03-03T19:09:21.356Z,60.56
2019-03-03T19:11:57.020Z,60.78
2019-03-03T19:14:28.828Z,60.91
2019-03-03T19:17:00.856Z,60.92
2019-03-03T19:19:32.535Z,60.83
2019-03-03T19:22:04.827Z,60.71
2019-03-03T19:24:37.167Z,60.91
2019-03-03T19:27:10.052Z,61.06
2019-03-03T19:29:40.308Z,61.03
2019-03-03T19:32:10.440Z,61.18
2019-03-03T19:34:40.614Z,61.36
2019-03-03T19:37:10.716Z,61.34
2019-03-03T19:39:40.893Z,61.37
2019-03-03T19:42:18.552Z,61.59
2019-03-03T19:44:48.359Z,61.49
2019-03-03T19:47:20.601Z,61.20
2019-03-03T19:49:50.727Z,61.60
2019-03-03T19:52:20.881Z,61.72
2019-03-03T19:54:51.334Z,61.75
2019-03-03T19:57:22.609Z,61.63
2019-03-03T19:59:52.489Z,61.88
2019-03-03T20:02:22.402Z,61.96
2019-03-03T20:04:52.528Z,61.78
2019-03-03T20:07:22.295Z,61.92
2019-03-03T20:09:52.876Z,61.54
2019-03-03T20:12:23.049Z,61.86
2019-03-03T20:14:52.778Z,62.02
2019-03-03T20:17:22.514Z,61.98
2019-03-03T20:19:52.707Z,62.08
2019-03-03T20:22:22.490Z,62.15
2019-03-03T20:24:54.372Z,62.36
2019-03-03T20:27:25.710Z,61.80
2019-03-03T20:29:55.932Z,62.03
2019-03-03T20:32:25.745Z,61.91
2019-03-03T20:34:55.882Z,61.73
2019-03-03T20:37:25.695Z,61.87
2019-03-03T20:39:55.420Z,61.87
2019-03-03T20:42:25.630Z,61.85
2019-03-03T20:44:55.642Z,61.87
2019-03-03T20:47:25.459Z,61.83
2019-03-03T20:49:55.564Z,61.62
2019-03-03T20:52:28.742Z,61.87
2019-03-03T20:54:58.539Z,61.88
2019-03-03T20:57:29.749Z,62.14
2019-03-03T21:00:00.378Z,62.14
2019-03-03T21:02:30.095Z,62.40
2019-03-03T21:05:00.430Z,62.42
2019-03-03T21:07:30.240Z,62.70
2019-03-03T21:10:00.375Z,62.47
2019-03-03T21:12:30.476Z,62.61
2019-03-03T21:15:00.315Z,62.18
2019-03-03T21:17:30.059Z,62.31
2019-03-03T21:20:00.411Z,62.93
2019-03-03T21:22:30.125Z,62.84
2019-03-03T21:24:59.819Z,63.24
2019-03-03T21:27:30.049Z,63.34
2019-03-03T21:29:59.970Z,63.42
2019-03-03T21:32:29.716Z,63.20
2019-03-03T21:35:01.370Z,63.69
2019-03-03T21:37:31.052Z,63.71
2019-03-03T21:40:00.973Z,63.70
2019-03-03T21:42:31.096Z,63.47
2019-03-03T21:45:00.756Z,63.39
2019-03-03T21:47:30.444Z,63.39
2019-03-03T21:50:00.514Z,63.59
2019-03-03T21:52:31.834Z,63.86
2019-03-03T21:55:03.906Z,64.29
2019-03-03T21:57:34.046Z,64.11
2019-03-03T22:00:04.214Z,63.87
2019-03-03T22:02:33.660Z,63.87
2019-03-03T22:05:03.603Z,63.77
2019-03-03T22:07:32.960Z,63.64
2019-03-03T22:10:03.366Z,63.74
2019-03-03T22:12:33.232Z,63.62
2019-03-03T22:15:02.539Z,63.79
2019-03-03T22:17:31.862Z,63.91
2019-03-03T22:20:03.576Z,63.96
2019-03-03T22:22:32.598Z,64.25
2019-03-03T22:25:02.003Z,63.84
2019-03-03T22:27:36.156Z,64.10
2019-03-03T22:30:07.333Z,63.67
2019-03-03T22:32:36.643Z,64.02
2019-03-03T22:35:06.375Z,63.92
2019-03-03T22:37:36.231Z,63.72
2019-03-03T22:40:09.199Z,64.09
2019-03-03T22:42:40.047Z,64.16
2019-03-03T22:45:10.673Z,63.82
2019-03-03T22:47:40.032Z,63.64
2019-03-03T22:50:10.725Z,63.61
2019-03-03T22:52:40.006Z,63.42
2019-03-03T22:55:09.899Z,62.99
2019-03-03T22:57:39.770Z,62.88
2019-03-03T23:00:44.306Z,62.32
2019-03-03T23:03:16.007Z,62.14
2019-03-03T23:06:15.308Z,61.86
2019-03-03T23:08:53.526Z,61.71
2019-03-03T23:12:04.567Z,61.91
2019-03-03T23:14:55.335Z,61.95
2019-03-03T23:18:00.017Z,62.19
2019-03-03T23:20:41.393Z,62.70
2019-03-03T23:23:57.081Z,62.85
2019-03-03T23:26:26.815Z,62.80
2019-03-03T23:28:56.095Z,62.93
2019-03-03T23:31:25.364Z,62.98
2019-03-03T23:33:55.156Z,63.19
2019-03-03T23:36:24.365Z,63.41
2019-03-03T23:38:53.859Z,63.39
2019-03-03T23:41:23.538Z,63.51
2019-03-03T23:43:52.861Z,63.36
2019-03-03T23:46:22.070Z,63.15
2019-03-03T23:48:51.861Z,63.25
2019-03-03T23:51:21.777Z,63.21
2019-03-03T23:53:51.072Z,62.77
2019-03-03T23:56:20.793Z,62.76
2019-03-03T23:58:50.055Z,62.39
